Time;durP1;ratioP1;P1;durP2;ratioP2;P2;SDS_P1;SDS_P2;PMS_P1;PMS_P2;Temp;Humidity;BMP_temperature;BMP_pressure;BME280_temperature;BME280_humidity;BME280_pressure;Samples;Min_cycle;Max_cycle;Signal;HPM_P1;HPM_P2
2023/10/15 00:00:50;;;;;;;6.55;1.30;;;8.80;99.90;;;;;;2621818;46;20033;31
2023/10/15 00:03:24;;;;;;;3.85;1.05;;;8.90;99.90;;;;;;2603254;54;20026;31
2023/10/15 00:05:59;;;;;;;2.20;0.90;;;8.90;99.90;;;;;;2603057;54;20030;31
2023/10/15 00:08:34;;;;;;;2.50;0.75;;;8.90;99.90;;;;;;2603264;54;20876;31
2023/10/15 00:11:17;;;;;;;4.63;0.90;;;8.90;99.90;;;;;;2621709;46;20038;31
2023/10/15 00:13:54;;;;;;;4.65;1.33;;;8.90;99.90;;;;;;2621464;46;20868;31
2023/10/15 00:16:29;;;;;;;7.88;1.23;;;8.90;99.90;;;;;;2603246;54;20031;31
2023/10/15 00:19:09;;;;;;;4.88;1.23;;;9.00;99.90;;;;;;2603149;54;19935;31
2023/10/15 00:21:44;;;;;;;8.67;1.20;;;9.00;99.90;;;;;;2603391;54;20805;31
2023/10/15 00:24:19;;;;;;;3.67;1.52;;;9.00;99.90;;;;;;2621559;46;20288;31
2023/10/15 00:26:54;;;;;;;6.20;1.40;;;9.10;99.90;;;;;;2603402;54;20029;31
2023/10/15 00:29:30;;;;;;;8.67;1.23;;;9.10;99.90;;;;;;2603305;54;20038;31
2023/10/15 00:32:06;;;;;;;3.00;0.60;;;9.10;99.90;;;;;;2603415;54;20896;31
2023/10/15 00:34:41;;;;;;;3.60;0.80;;;9.10;99.90;;;;;;2621634;46;20584;31
2023/10/15 00:37:16;;;;;;;2.60;0.63;;;9.10;99.90;;;;;;2603426;54;20030;31
2023/10/15 00:39:51;;;;;;;4.03;0.52;;;9.10;99.90;;;;;;2621605;46;20572;31
2023/10/15 00:42:25;;;;;;;4.00;0.95;;;9.20;99.90;;;;;;2621605;46;20037;31
2023/10/15 00:45:03;;;;;;;6.00;1.25;;;9.20;99.90;;;;;;2772927;31;21526;31
2023/10/15 00:47:38;;;;;;;3.03;0.80;;;9.20;99.90;;;;;;2603112;54;20037;31
2023/10/15 00:50:14;;;;;;;9.35;1.27;;;9.20;99.90;;;;;;2603059;54;20057;31
2023/10/15 00:52:49;;;;;;;4.90;0.95;;;9.20;99.90;;;;;;2603093;54;20982;31
2023/10/15 00:55:28;;;;;;;5.35;1.00;;;9.20;99.90;;;;;;2603354;54;20038;31
2023/10/15 00:58:07;;;;;;;2.42;0.80;;;9.20;99.90;;;;;;2603282;54;20048;31
2023/10/15 01:00:52;;;;;;;4.22;0.85;;;9.20;99.90;;;;;;2603116;54;20041;31
2023/10/15 01:03:30;;;;;;;3.67;0.90;;;9.20;99.90;;;;;;2603215;54;20030;31
2023/10/15 01:06:06;;;;;;;6.55;1.25;;;9.20;99.90;;;;;;2701611;39;21251;31
2023/10/15 01:08:41;;;;;;;5.10;1.00;;;9.20;99.90;;;;;;2772849;31;20624;31
2023/10/15 01:11:18;;;;;;;5.85;1.00;;;9.30;99.90;;;;;;2603081;54;20916;31
2023/10/15 01:13:53;;;;;;;7.38;0.98;;;9.30;99.90;;;;;;2602994;54;20037;31
2023/10/15 01:16:35;;;;;;;4.97;0.90;;;9.20;99.90;;;;;;2621178;47;20026;31
2023/10/15 01:19:17;;;;;;;2.40;0.85;;;9.20;99.90;;;;;;2603108;54;20053;31
2023/10/15 01:21:53;;;;;;;3.33;0.85;;;9.20;99.90;;;;;;2603007;54;20953;31
2023/10/15 01:24:28;;;;;;;3.75;0.80;;;9.20;99.90;;;;;;2621641;47;20803;31
2023/10/15 01:27:09;;;;;;;4.18;0.60;;;9.20;99.90;;;;;;2701494;39;21399;31
2023/10/15 01:29:47;;;;;;;5.25;1.00;;;9.10;99.90;;;;;;2602941;54;20086;31
2023/10/15 01:32:23;;;;;;;1.65;0.35;;;9.10;99.90;;;;;;2602968;54;20037;31
2023/10/15 01:34:59;;;;;;;3.60;0.60;;;9.10;99.90;;;;;;2602552;54;20977;31
2023/10/15 01:37:36;;;;;;;5.25;0.75;;;9.10;99.90;;;;;;2602874;54;20895;31
2023/10/15 01:40:30;;;;;;;2.47;0.68;;;9.10;99.90;;;;;;2602927;54;20037;31
2023/10/15 01:43:06;;;;;;;2.00;0.40;;;9.10;99.90;;;;;;2621376;47;20922;31
2023/10/15 01:45:47;;;;;;;2.85;0.43;;;9.00;99.90;;;;;;2602960;54;20878;31
2023/10/15 01:48:24;;;;;;;3.10;0.50;;;9.00;99.90;;;;;;2602941;54;20939;31
2023/10/15 01:51:06;;;;;;;5.70;0.50;;;9.00;99.90;;;;;;2701420;39;20477;31
2023/10/15 01:53:45;;;;;;;3.30;0.45;;;9.00;99.90;;;;;;2602892;54;20037;31
2023/10/15 01:56:20;;;;;;;3.45;0.70;;;9.00;99.90;;;;;;2602956;54;20830;31
2023/10/15 01:58:55;;;;;;;4.40;0.77;;;8.90;99.90;;;;;;2602914;54;20803;31
2023/10/15 02:01:37;;;;;;;1.77;0.57;;;8.90;99.90;;;;;;2602812;54;20030;31
2023/10/15 02:04:17;;;;;;;3.80;0.40;;;8.90;99.90;;;;;;2602801;54;20908;31
2023/10/15 02:06:53;;;;;;;6.05;0.88;;;8.80;99.90;;;;;;2621274;47;20557;31
2023/10/15 02:09:29;;;;;;;3.35;0.40;;;8.80;99.90;;;;;;2621231;47;20034;31
2023/10/15 02:12:07;;;;;;;2.72;0.73;;;8.80;99.90;;;;;;2602886;54;20893;31
2023/10/15 02:14:42;;;;;;;5.90;0.55;;;8.80;99.90;;;;;;2621637;47;20038;31
2023/10/15 02:17:23;;;;;;;4.43;0.98;;;8.80;99.90;;;;;;2602769;54;20932;31
2023/10/15 02:19:58;;;;;;;1.70;0.60;;;8.80;99.90;;;;;;2602795;54;20034;31
2023/10/15 02:22:38;;;;;;;2.15;0.75;;;8.80;99.90;;;;;;2602808;54;20910;31
2023/10/15 02:25:13;;;;;;;0.90;0.40;;;8.70;99.90;;;;;;2602921;54;20038;31
2023/10/15 02:27:47;;;;;;;8.13;0.70;;;8.70;99.90;;;;;;2603357;54;20827;31
2023/10/15 02:30:22;;;;;;;1.67;0.63;;;8.70;99.90;;;;;;2621733;46;20092;31
2023/10/15 02:33:01;;;;;;;1.55;0.30;;;8.70;99.90;;;;;;2603878;54;20820;31
2023/10/15 02:35:39;;;;;;;4.20;0.57;;;8.60;99.90;;;;;;2603564;54;20604;31
2023/10/15 02:38:15;;;;;;;3.42;0.75;;;8.60;99.90;;;;;;2603629;54;20565;31
2023/10/15 02:41:04;;;;;;;;;;;8.60;99.90;;;;;;2603877;54;20903;31
2023/10/15 02:43:40;;;;;;;2.10;0.50;;;8.50;99.90;;;;;;2603558;54;20780;31
2023/10/15 02:46:22;;;;;;;2.57;0.53;;;8.50;99.90;;;;;;2603359;54;20033;31
2023/10/15 02:49:01;;;;;;;2.90;0.80;;;8.50;99.90;;;;;;2603674;54;20034;31
2023/10/15 02:51:37;;;;;;;6.97;0.95;;;8.50;99.90;;;;;;2603528;54;20064;31
2023/10/15 02:54:27;;;;;;;1.08;0.40;;;8.40;99.90;;;;;;2603610;54;20565;31
2023/10/15 02:57:03;;;;;;;4.55;0.55;;;8.40;99.90;;;;;;2603548;54;20900;31
2023/10/15 02:59:38;;;;;;;4.00;0.80;;;8.40;99.90;;;;;;2603604;54;20026;31
2023/10/15 03:02:13;;;;;;;1.70;0.50;;;8.30;99.90;;;;;;2603368;54;20847;31
2023/10/15 03:04:55;;;;;;;1.97;0.50;;;8.30;99.90;;;;;;2603462;54;20960;31
2023/10/15 03:07:30;;;;;;;10.90;0.77;;;8.30;99.90;;;;;;2622072;46;19990;31
2023/10/15 03:10:05;;;;;;;3.15;0.50;;;8.30;99.90;;;;;;2603612;54;20652;31
2023/10/15 03:12:43;;;;;;;1.85;0.40;;;8.20;99.90;;;;;;2603429;54;19984;31
2023/10/15 03:15:17;;;;;;;3.33;0.50;;;8.20;99.90;;;;;;2603373;54;20038;31
2023/10/15 03:17:54;;;;;;;2.38;0.55;;;8.20;99.90;;;;;;2622002;46;20027;31
2023/10/15 03:20:40;;;;;;;5.95;0.40;;;8.20;99.90;;;;;;2603424;54;20912;31
2023/10/15 03:23:16;;;;;;;1.80;0.40;;;8.20;99.90;;;;;;2603439;54;20868;31
2023/10/15 03:25:57;;;;;;;1.10;0.30;;;8.20;99.90;;;;;;2603385;54;20906;31
2023/10/15 03:28:34;;;;;;;2.53;0.57;;;8.10;99.90;;;;;;2603370;54;20574;31
2023/10/15 03:31:09;;;;;;;4.05;0.70;;;8.10;99.90;;;;;;2621620;46;20905;31
2023/10/15 03:33:59;;;;;;;4.25;0.57;;;8.10;99.90;;;;;;2603470;54;20137;31
2023/10/15 03:36:47;;;;;;;3.83;0.30;;;8.00;99.90;;;;;;2603434;54;20034;31
2023/10/15 03:39:53;;;;;;;5.30;0.57;;;8.00;99.90;;;;;;2603353;54;20026;31
2023/10/15 03:42:26;;;;;;;2.25;0.40;;;7.90;99.90;;;;;;2603358;54;20033;31
2023/10/15 03:45:08;;;;;;;2.13;0.53;;;7.90;99.90;;;;;;2603748;54;20655;31
2023/10/15 03:47:46;;;;;;;4.10;0.50;;;7.80;99.90;;;;;;2603425;54;20839;31
2023/10/15 03:50:28;;;;;;;3.45;0.73;;;7.80;99.90;;;;;;2603231;54;20034;31
2023/10/15 03:53:05;;;;;;;2.55;0.50;;;7.80;99.90;;;;;;2603305;54;20033;31
2023/10/15 03:55:42;;;;;;;2.83;1.40;;;7.80;99.90;;;;;;2603340;54;20038;31
2023/10/15 03:58:18;;;;;;;3.03;0.73;;;7.70;99.90;;;;;;2603457;54;20569;31
2023/10/15 04:00:56;;;;;;;3.28;0.50;;;7.70;99.90;;;;;;2603393;54;20082;31
2023/10/15 04:03:35;;;;;;;6.05;1.20;;;7.70;99.90;;;;;;2603268;54;20904;31
2023/10/15 04:06:10;;;;;;;1.85;0.57;;;7.70;99.90;;;;;;2603297;54;20908;31
2023/10/15 04:11:42;;;;;;;0.80;0.40;;;7.70;99.90;;;;;;2603297;54;20033;31
2023/10/15 04:14:17;;;;;;;5.90;0.80;;;7.60;99.90;;;;;;2603243;54;20096;31
2023/10/15 04:16:52;;;;;;;3.60;0.80;;;7.60;99.90;;;;;;2603333;54;20818;31
2023/10/15 04:19:29;;;;;;;8.98;1.00;;;7.60;99.90;;;;;;2603339;54;20055;31
2023/10/15 04:22:13;;;;;;;5.60;0.70;;;7.60;99.90;;;;;;2603350;54;20027;31
2023/10/15 04:24:50;;;;;;;5.45;0.60;;;7.60;99.90;;;;;;2621607;46;20030;31
2023/10/15 04:27:27;;;;;;;3.10;0.52;;;7.60;99.90;;;;;;2603119;54;20038;31
2023/10/15 04:30:01;;;;;;;8.02;0.70;;;7.50;99.90;;;;;;2603147;54;21037;31
2023/10/15 04:32:46;;;;;;;4.63;0.75;;;7.50;99.90;;;;;;2615639;46;20901;31
2023/10/15 04:35:25;;;;;;;4.70;0.60;;;7.50;99.90;;;;;;2701863;39;20477;31
2023/10/15 04:38:04;;;;;;;5.85;1.15;;;7.50;99.90;;;;;;2603428;54;20940;31
2023/10/15 04:40:50;;;;;;;4.55;1.20;;;7.50;99.90;;;;;;2603084;54;20036;31
2023/10/15 04:43:25;;;;;;;5.50;1.60;;;7.50;99.90;;;;;;2603385;54;20902;31
2023/10/15 04:46:02;;;;;;;2.80;0.63;;;7.40;99.90;;;;;;2603149;54;20030;31
2023/10/15 04:48:37;;;;;;;5.07;0.88;;;7.40;99.90;;;;;;2773007;31;20536;31
2023/10/15 04:51:14;;;;;;;3.88;1.13;;;7.40;99.90;;;;;;2621354;46;20803;31
2023/10/15 04:53:48;;;;;;;;;;;7.40;99.90;;;;;;2603427;54;20105;31
2023/10/15 04:56:26;;;;;;;2.90;0.90;;;7.40;99.90;;;;;;2621655;46;19941;31
2023/10/15 04:59:01;;;;;;;4.95;0.88;;;7.30;99.90;;;;;;2621243;46;20030;31
2023/10/15 05:01:36;;;;;;;3.05;1.35;;;7.30;99.90;;;;;;2603176;54;20093;31
2023/10/15 05:04:11;;;;;;;8.45;1.15;;;7.30;99.90;;;;;;2621372;46;20852;31
2023/10/15 05:06:45;;;;;;;4.15;1.00;;;7.30;99.90;;;;;;2603102;54;20883;31
2023/10/15 05:09:23;;;;;;;5.35;1.15;;;7.30;99.90;;;;;;2603421;54;20034;31
2023/10/15 05:12:01;;;;;;;6.10;0.90;;;7.20;99.90;;;;;;2603358;54;20022;31
2023/10/15 05:14:35;;;;;;;4.10;1.15;;;7.20;99.90;;;;;;2603044;54;20050;31
2023/10/15 05:17:09;;;;;;;6.97;1.20;;;7.30;99.90;;;;;;2621298;46;20923;31
2023/10/15 05:19:43;;;;;;;5.95;1.20;;;7.20;99.90;;;;;;2621470;46;20093;31
2023/10/15 05:22:19;;;;;;;6.82;1.25;;;7.20;99.90;;;;;;2602900;54;20839;31
2023/10/15 05:24:53;;;;;;;4.60;1.70;;;7.20;99.90;;;;;;2603144;54;20924;31
2023/10/15 05:27:32;;;;;;;3.45;1.00;;;7.20;99.90;;;;;;2603144;54;20031;31
2023/10/15 05:30:10;;;;;;;11.87;1.77;;;7.20;99.90;;;;;;2602820;54;20033;31
2023/10/15 05:32:45;;;;;;;6.57;1.00;;;7.20;99.90;;;;;;2603126;54;19941;31
2023/10/15 05:35:20;;;;;;;4.75;0.75;;;7.30;99.90;;;;;;2621319;47;20854;31
2023/10/15 05:37:55;;;;;;;3.90;0.90;;;7.30;99.90;;;;;;2603026;54;20034;31
2023/10/15 05:40:30;;;;;;;6.32;1.17;;;7.40;99.90;;;;;;2603078;54;20049;31
2023/10/15 05:43:09;;;;;;;3.97;1.02;;;7.60;99.90;;;;;;2602854;54;20023;31
2023/10/15 05:45:44;;;;;;;3.67;0.80;;;7.80;99.90;;;;;;2603004;54;20085;31
2023/10/15 05:48:20;;;;;;;8.25;0.80;;;8.00;99.90;;;;;;2602853;54;20844;31
2023/10/15 05:50:54;;;;;;;3.00;0.97;;;8.20;99.90;;;;;;2602926;54;20027;31
2023/10/15 05:53:30;;;;;;;6.55;0.73;;;8.60;99.90;;;;;;2603039;54;20260;31
2023/10/15 05:56:07;;;;;;;6.75;0.90;;;8.80;99.90;;;;;;2603039;54;20806;31
2023/10/15 05:58:45;;;;;;;7.47;1.00;;;9.10;99.90;;;;;;2621134;47;20592;31
2023/10/15 06:01:19;;;;;;;4.93;0.77;;;9.30;99.90;;;;;;2603171;54;20026;31
2023/10/15 06:03:54;;;;;;;4.38;1.00;;;9.60;99.90;;;;;;2622411;46;20109;31
2023/10/15 06:06:29;;;;;;;4.13;0.55;;;9.90;99.90;;;;;;2603771;54;20038;31
2023/10/15 06:09:05;;;;;;;3.65;0.90;;;10.20;99.90;;;;;;2603596;54;20100;31
2023/10/15 06:11:40;;;;;;;6.93;0.60;;;10.30;99.90;;;;;;2603372;54;20987;31
2023/10/15 06:14:18;;;;;;;2.17;0.70;;;10.50;99.90;;;;;;2603575;54;20856;31
2023/10/15 06:16:52;;;;;;;2.28;0.70;;;10.70;99.90;;;;;;2603751;54;20081;31
2023/10/15 06:19:29;;;;;;;4.90;0.70;;;10.80;99.90;;;;;;2621880;46;20933;31
2023/10/15 06:22:05;;;;;;;4.38;0.68;;;11.00;99.90;;;;;;2622122;46;20049;31
2023/10/15 06:24:40;;;;;;;5.45;0.60;;;11.20;99.90;;;;;;2603556;54;20912;31
2023/10/15 06:27:15;;;;;;;4.20;0.35;;;11.40;99.90;;;;;;2603543;54;20917;31
2023/10/15 06:29:53;;;;;;;2.50;0.45;;;11.60;99.90;;;;;;2622160;46;20836;31
2023/10/15 06:32:28;;;;;;;3.40;0.60;;;11.90;99.90;;;;;;2603382;54;21362;31
2023/10/15 06:35:03;;;;;;;3.10;0.45;;;12.20;99.90;;;;;;2603541;54;20881;31
2023/10/15 06:37:39;;;;;;;6.07;0.60;;;12.40;99.90;;;;;;2603604;54;20034;31
2023/10/15 06:40:16;;;;;;;5.65;0.77;;;12.70;99.90;;;;;;2603544;54;20885;31
2023/10/15 06:43:00;;;;;;;3.58;0.70;;;12.90;99.90;;;;;;2621875;46;22380;31
2023/10/15 06:45:37;;;;;;;7.00;0.82;;;13.20;99.90;;;;;;2603402;54;20023;31
2023/10/15 06:48:12;;;;;;;2.47;0.50;;;13.40;99.90;;;;;;2702177;39;20504;31
2023/10/15 06:50:47;;;;;;;7.82;0.90;;;13.50;99.90;;;;;;2603543;54;20129;31
2023/10/15 06:53:23;;;;;;;4.40;0.50;;;13.60;99.90;;;;;;2603581;54;20031;31
2023/10/15 06:55:58;;;;;;;;;;;13.70;99.90;;;;;;2603641;54;20026;31
2023/10/15 06:58:33;;;;;;;6.85;0.95;;;14.00;99.90;;;;;;2614253;46;20741;31
2023/10/15 07:01:11;;;;;;;2.65;0.30;;;14.20;99.90;;;;;;2603603;54;20866;31
2023/10/15 07:03:47;;;;;;;8.40;0.70;;;14.30;99.90;;;;;;2603470;54;20030;31
2023/10/15 07:06:22;;;;;;;4.82;0.50;;;14.60;99.90;;;;;;2603534;54;20085;31
2023/10/15 07:08:59;;;;;;;5.47;0.70;;;14.60;99.90;;;;;;2610504;46;20026;31
2023/10/15 07:11:35;;;;;;;7.00;0.70;;;14.80;99.90;;;;;;2603431;54;20050;31
2023/10/15 07:14:10;;;;;;;4.88;0.95;;;14.90;99.90;;;;;;2602950;54;20030;31
2023/10/15 07:16:49;;;;;;;3.65;0.43;;;15.10;99.90;;;;;;2603423;54;20664;31
2023/10/15 07:19:25;;;;;;;3.55;0.93;;;15.10;99.90;;;;;;2609155;46;20936;31
2023/10/15 07:21:59;;;;;;;3.63;0.60;;;15.30;99.90;;;;;;2701881;39;20650;31
2023/10/15 07:24:34;;;;;;;6.03;0.70;;;15.30;99.90;;;;;;2621672;46;21107;31
2023/10/15 07:27:09;;;;;;;4.47;0.50;;;15.40;99.90;;;;;;2701817;39;20593;31
2023/10/15 07:29:45;;;;;;;7.75;0.57;;;15.60;99.90;;;;;;2603420;54;20596;31
2023/10/15 07:32:23;;;;;;;6.75;1.02;;;15.50;99.90;;;;;;2720222;39;20493;31
2023/10/15 07:34:59;;;;;;;4.60;0.68;;;15.40;99.90;;;;;;2603500;54;20840;31
2023/10/15 07:37:34;;;;;;;5.72;1.02;;;15.20;99.90;;;;;;2603116;54;20851;31
2023/10/15 07:40:16;;;;;;;5.20;0.52;;;15.10;99.90;;;;;;2603495;54;20033;31
2023/10/15 07:42:51;;;;;;;4.80;0.93;;;15.20;99.90;;;;;;2621864;46;20037;31
2023/10/15 07:45:28;;;;;;;3.30;0.50;;;15.20;99.90;;;;;;2603418;54;20897;31
2023/10/15 07:48:07;;;;;;;3.15;0.32;;;15.10;99.90;;;;;;2701818;39;20485;31
2023/10/15 07:50:45;;;;;;;1.90;0.38;;;15.20;99.90;;;;;;2603575;54;20144;31
2023/10/15 07:53:19;;;;;;;4.00;0.60;;;15.00;99.90;;;;;;2603347;54;20837;31
2023/10/15 07:55:54;;;;;;;3.83;0.80;;;14.90;99.90;;;;;;2603259;54;20333;31
2023/10/15 07:58:29;;;;;;;3.63;1.07;;;14.80;99.90;;;;;;2621738;46;20089;31
2023/10/15 08:01:04;;;;;;;3.70;0.80;;;14.90;99.90;;;;;;2603335;54;20837;31
2023/10/15 08:03:49;;;;;;;4.88;0.75;;;14.70;99.90;;;;;;2603208;54;21155;31
2023/10/15 08:06:25;;;;;;;3.90;0.73;;;14.50;99.90;;;;;;2603209;54;20852;31
2023/10/15 08:09:00;;;;;;;3.60;0.60;;;14.50;99.90;;;;;;2603461;54;20041;31
2023/10/15 08:11:35;;;;;;;4.72;0.80;;;14.30;99.90;;;;;;2603181;54;21054;31
2023/10/15 08:14:10;;;;;;;4.35;0.70;;;14.40;99.90;;;;;;2603442;54;20932;31
2023/10/15 08:16:45;;;;;;;3.22;1.15;;;14.10;99.90;;;;;;2603147;54;20565;31
2023/10/15 08:19:23;;;;;;;7.03;1.15;;;14.30;99.90;;;;;;2720171;39;20478;31
2023/10/15 08:21:59;;;;;;;7.60;1.08;;;14.20;99.90;;;;;;2603151;54;20081;31
2023/10/15 08:24:34;;;;;;;6.45;0.63;;;14.30;99.90;;;;;;2602907;54;20562;31
2023/10/15 08:27:09;;;;;;;3.83;0.53;;;14.40;99.90;;;;;;2603206;54;20843;31
2023/10/15 08:29:44;;;;;;;4.03;0.82;;;14.50;99.90;;;;;;2621834;46;20267;31
2023/10/15 08:32:20;;;;;;;4.17;0.60;;;14.40;99.90;;;;;;2603023;54;20030;31
2023/10/15 08:34:55;;;;;;;;;;;14.60;99.90;;;;;;2603487;54;20238;31
2023/10/15 08:37:30;;;;;;;2.50;0.45;;;14.70;99.90;;;;;;2621728;46;20838;31
2023/10/15 08:40:06;;;;;;;3.50;0.57;;;14.70;99.90;;;;;;2603424;54;20027;31
2023/10/15 08:42:44;;;;;;;2.63;0.67;;;14.90;99.90;;;;;;2603186;54;20581;31
2023/10/15 08:45:21;;;;;;;4.85;0.63;;;14.80;99.90;;;;;;2603179;54;20057;31
2023/10/15 08:47:57;;;;;;;3.70;0.75;;;14.60;99.90;;;;;;2603133;54;20939;31
2023/10/15 08:50:36;;;;;;;5.20;0.70;;;14.50;99.90;;;;;;2603382;54;20026;31
2023/10/15 08:53:11;;;;;;;4.15;0.57;;;14.30;99.90;;;;;;2701557;39;20727;31
2023/10/15 08:55:46;;;;;;;5.22;0.63;;;14.10;99.90;;;;;;2603248;54;20030;31
2023/10/15 08:58:25;;;;;;;3.70;0.50;;;13.80;99.90;;;;;;2603294;54;20053;31
2023/10/15 09:01:00;;;;;;;3.47;0.60;;;13.60;99.90;;;;;;2603020;54;20569;31
2023/10/15 09:03:32;;;;;;;7.50;0.70;;;13.90;99.90;;;;;;2602870;54;21159;31
2023/10/15 09:06:11;;;;;;;3.85;0.60;;;13.80;99.90;;;;;;2603007;54;20053;31
2023/10/15 09:08:48;;;;;;;4.15;1.05;;;13.60;99.90;;;;;;2609517;46;20034;31
2023/10/15 09:11:27;;;;;;;4.10;0.50;;;13.60;99.90;;;;;;2621420;46;20053;31
2023/10/15 09:14:02;;;;;;;3.05;0.45;;;13.70;99.90;;;;;;2603283;54;20031;31
2023/10/15 09:16:37;;;;;;;3.70;0.60;;;13.70;99.90;;;;;;2603086;54;20896;31
2023/10/15 09:19:12;;;;;;;9.45;0.65;;;13.90;99.90;;;;;;2603009;54;21607;31
2023/10/15 09:21:50;;;;;;;7.60;0.77;;;13.90;99.90;;;;;;2603092;54;20077;31
2023/10/15 09:24:25;;;;;;;4.45;0.57;;;14.00;99.90;;;;;;2602942;54;20049;31
2023/10/15 09:27:00;;;;;;;3.50;0.70;;;14.10;99.90;;;;;;2602891;54;20816;31
2023/10/15 09:29:35;;;;;;;4.53;0.63;;;13.80;99.90;;;;;;2603225;54;20557;31
2023/10/15 09:32:10;;;;;;;7.18;0.40;;;13.80;99.90;;;;;;2602812;54;21626;31
2023/10/15 09:34:48;;;;;;;3.33;0.70;;;13.80;99.90;;;;;;2621175;47;20815;31
2023/10/15 09:37:25;;;;;;;2.78;0.38;;;14.00;99.90;;;;;;2603627;54;20798;31
2023/10/15 09:40:00;;;;;;;4.68;0.70;;;14.30;99.90;;;;;;2603843;54;20572;31
2023/10/15 09:42:35;;;;;;;3.10;0.52;;;14.50;99.90;;;;;;2622007;46;20878;31
2023/10/15 09:45:18;;;;;;;5.75;0.80;;;14.80;99.90;;;;;;2603865;54;20919;31
2023/10/15 09:47:55;;;;;;;5.45;0.73;;;15.00;99.90;;;;;;2622065;46;20106;31
2023/10/15 09:50:31;;;;;;;6.60;0.95;;;15.20;99.90;;;;;;2603442;54;20034;31
2023/10/15 09:53:16;;;;;;;3.15;0.65;;;15.20;99.90;;;;;;2603781;54;20931;31
2023/10/15 09:55:51;;;;;;;2.58;0.77;;;15.50;99.90;;;;;;2603636;54;20034;31
2023/10/15 09:58:26;;;;;;;5.90;0.60;;;15.50;99.90;;;;;;2702129;39;20389;31
2023/10/15 10:01:08;;;;;;;3.85;0.50;;;15.50;99.90;;;;;;2603674;54;20112;31
2023/10/15 10:04:19;;;;;;;4.53;0.65;;;15.60;99.90;;;;;;2603772;54;20058;31
2023/10/15 10:07:29;;;;;;;5.77;1.27;;;15.80;99.90;;;;;;2603428;54;21025;31
2023/10/15 10:10:34;;;;;;;3.22;0.70;;;15.90;99.90;;;;;;2603852;54;20849;31
2023/10/15 10:13:29;;;;;;;6.60;0.57;;;16.10;99.90;;;;;;2603875;54;20027;31
2023/10/15 10:16:04;;;;;;;3.30;0.70;;;16.10;99.90;;;;;;2720850;39;20397;31
2023/10/15 10:18:39;;;;;;;8.80;0.60;;;16.30;99.90;;;;;;2621962;46;20848;31
2023/10/15 10:21:15;;;;;;;5.93;0.90;;;16.30;99.90;;;;;;2603779;54;20852;31
2023/10/15 10:23:53;;;;;;;7.75;0.60;;;16.40;99.90;;;;;;2603583;54;20031;31
2023/10/15 10:26:30;;;;;;;6.90;1.00;;;16.40;99.90;;;;;;2603635;54;20886;31
2023/10/15 10:29:04;;;;;;;3.42;0.60;;;16.30;99.90;;;;;;2614040;46;20901;31
2023/10/15 10:31:39;;;;;;;2.90;0.60;;;16.20;99.90;;;;;;2620254;46;20022;31
2023/10/15 10:34:14;;;;;;;4.13;0.70;;;16.20;99.90;;;;;;2603607;54;20581;31
2023/10/15 10:36:55;;;;;;;5.00;0.70;;;15.80;99.90;;;;;;2603673;54;20092;31
2023/10/15 10:39:44;;;;;;;1.98;0.40;;;15.40;99.90;;;;;;2603564;54;20030;31
2023/10/15 10:42:26;;;;;;;5.10;0.40;;;15.30;99.90;;;;;;2603647;54;20035;31
2023/10/15 10:45:02;;;;;;;3.70;0.52;;;15.10;99.90;;;;;;2603806;54;20043;31
2023/10/15 10:47:38;;;;;;;1.80;0.50;;;15.10;99.90;;;;;;2621708;46;20109;31
2023/10/15 10:50:12;;;;;;;5.28;0.50;;;15.00;99.90;;;;;;2603502;54;20026;31
2023/10/15 10:52:47;;;;;;;5.57;0.60;;;14.80;99.90;;;;;;2603376;54;20049;31
2023/10/15 10:55:36;;;;;;;5.50;0.70;;;14.60;99.90;;;;;;2603479;54;20037;31
2023/10/15 10:58:29;;;;;;;7.10;0.70;;;14.40;99.90;;;;;;2603490;54;20022;31
2023/10/15 11:01:06;;;;;;;8.23;0.52;;;14.30;99.90;;;;;;2603505;54;20030;31
2023/10/15 11:03:41;;;;;;;5.60;1.05;;;14.10;99.90;;;;;;2603493;54;20144;31
2023/10/15 11:06:16;;;;;;;5.45;0.80;;;13.90;99.90;;;;;;2603417;54;20058;31
2023/10/15 11:08:52;;;;;;;3.23;0.70;;;13.70;99.90;;;;;;2603575;54;20946;31
2023/10/15 11:11:27;;;;;;;4.05;0.73;;;13.60;99.90;;;;;;2621945;46;20263;31
2023/10/15 11:14:05;;;;;;;5.70;0.50;;;13.50;99.90;;;;;;2603453;54;20035;31
2023/10/15 11:16:40;;;;;;;8.98;0.60;;;13.30;99.90;;;;;;2603478;54;20035;31
2023/10/15 11:19:19;;;;;;;2.00;0.40;;;13.20;99.90;;;;;;2603461;54;20030;31
2023/10/15 11:21:54;;;;;;;4.97;0.60;;;13.30;99.90;;;;;;2603496;54;20262;31
2023/10/15 11:24:30;;;;;;;5.10;0.40;;;13.40;99.90;;;;;;2603286;54;20407;31
2023/10/15 11:27:07;;;;;;;6.57;0.60;;;13.40;99.90;;;;;;2603314;54;20051;31
2023/10/15 11:29:45;;;;;;;3.03;0.60;;;13.60;99.90;;;;;;2603523;54;20805;31
2023/10/15 11:32:20;;;;;;;2.50;0.50;;;13.70;99.90;;;;;;2603521;54;20030;31
2023/10/15 11:34:57;;;;;;;1.35;0.40;;;13.60;99.90;;;;;;2603197;54;25063;31
2023/10/15 11:37:32;;;;;;;2.67;0.50;;;13.50;99.90;;;;;;2621817;46;20144;31
2023/10/15 11:40:12;;;;;;;2.60;0.23;;;13.30;99.90;;;;;;2603325;54;20805;31
2023/10/15 11:42:50;;;;;;;3.35;0.40;;;13.20;99.90;;;;;;2603253;54;20344;31
2023/10/15 11:45:30;;;;;;;3.73;0.50;;;13.10;99.90;;;;;;2621735;46;20023;31
2023/10/15 11:48:04;;;;;;;4.90;0.65;;;13.00;99.90;;;;;;2603503;54;20026;31
2023/10/15 11:50:40;;;;;;;2.95;0.45;;;12.90;99.90;;;;;;2603497;54;20033;31
2023/10/15 11:53:18;;;;;;;7.30;0.75;;;12.90;99.90;;;;;;2764900;31;20056;31
2023/10/15 11:55:55;;;;;;;4.65;0.70;;;12.80;99.90;;;;;;2603345;54;20060;31
2023/10/15 11:58:32;;;;;;;7.45;0.55;;;12.70;99.90;;;;;;2621313;46;20848;31
2023/10/15 12:01:14;;;;;;;;;;;12.70;99.90;;;;;;2603748;54;20049;31
2023/10/15 12:03:50;;;;;;;4.55;0.85;;;12.70;99.90;;;;;;2603167;54;20786;31
2023/10/15 12:06:25;;;;;;;2.47;0.53;;;12.80;99.90;;;;;;2603422;54;20033;31
2023/10/15 12:09:00;;;;;;;5.10;0.52;;;12.90;99.90;;;;;;2603256;54;20027;31
2023/10/15 12:11:36;;;;;;;3.25;0.50;;;12.90;99.90;;;;;;2621712;46;20030;31
2023/10/15 12:14:11;;;;;;;3.00;0.45;;;12.90;99.90;;;;;;2603303;54;20108;31
2023/10/15 12:16:49;;;;;;;2.33;0.40;;;12.90;99.90;;;;;;2603163;54;20864;31
2023/10/15 12:19:24;;;;;;;2.78;1.05;;;12.70;99.90;;;;;;2603147;54;20868;31
2023/10/15 12:21:59;;;;;;;3.20;0.50;;;12.60;99.90;;;;;;2603185;54;20030;31
2023/10/15 12:24:35;;;;;;;4.27;0.70;;;12.60;99.90;;;;;;2603164;54;20972;31
2023/10/15 12:27:10;;;;;;;3.58;0.57;;;12.60;99.90;;;;;;2603163;54;20254;31
2023/10/15 12:29:45;;;;;;;3.20;0.40;;;12.70;99.90;;;;;;2603266;54;20846;31
2023/10/15 12:32:23;;;;;;;4.55;0.68;;;12.70;99.90;;;;;;2603370;54;20157;31
2023/10/15 12:35:19;;;;;;;4.00;0.55;;;12.70;99.90;;;;;;2603084;54;21003;31
2023/10/15 12:38:01;;;;;;;4.25;0.40;;;12.60;99.90;;;;;;2621607;46;20765;31
2023/10/15 12:40:38;;;;;;;4.40;1.20;;;12.70;99.90;;;;;;2603152;54;20825;31
2023/10/15 12:43:15;;;;;;;4.07;0.50;;;12.70;99.90;;;;;;2621333;46;20097;31
2023/10/15 12:45:53;;;;;;;1.55;0.55;;;12.80;99.90;;;;;;2603013;54;20954;31
2023/10/15 12:48:32;;;;;;;3.10;0.70;;;12.80;99.90;;;;;;2602732;54;20845;31
2023/10/15 12:51:07;;;;;;;1.85;0.50;;;12.80;99.90;;;;;;2603044;54;20027;31
2023/10/15 12:53:42;;;;;;;9.07;0.50;;;12.80;99.90;;;;;;2701647;39;21383;31
2023/10/15 12:56:17;;;;;;;1.80;0.50;;;12.80;99.90;;;;;;2603115;54;20929;31
2023/10/15 12:58:54;;;;;;;4.67;0.50;;;12.80;99.90;;;;;;2720081;39;20517;31
2023/10/15 13:01:29;;;;;;;2.95;0.52;;;12.70;99.90;;;;;;2701588;39;20729;31
2023/10/15 13:04:08;;;;;;;6.60;0.50;;;12.70;99.90;;;;;;2603016;54;20789;31
2023/10/15 13:06:44;;;;;;;2.97;0.52;;;12.50;99.90;;;;;;2603029;54;19934;31
2023/10/15 13:09:25;;;;;;;4.27;1.27;;;12.50;99.90;;;;;;2603176;54;20058;31
2023/10/15 13:12:01;;;;;;;41.03;12.37;;;12.60;99.90;;;;;;2602828;54;20117;31
2023/10/15 13:14:36;;;;;;;11.15;4.47;;;12.70;99.90;;;;;;2603258;54;20847;31
2023/10/15 13:17:12;;;;;;;6.53;2.00;;;12.80;99.90;;;;;;2603209;54;20034;31
2023/10/15 13:19:50;;;;;;;6.97;2.03;;;12.80;99.90;;;;;;2603225;54;20031;31
2023/10/15 13:22:25;;;;;;;5.03;1.65;;;12.90;99.90;;;;;;2603051;54;20912;31
2023/10/15 13:25:00;;;;;;;7.67;3.07;;;12.90;99.90;;;;;;2621281;46;20909;31
2023/10/15 13:27:38;;;;;;;14.15;5.53;;;12.80;99.90;;;;;;2602768;54;20073;31
2023/10/15 13:30:15;;;;;;;16.50;6.55;;;12.70;99.90;;;;;;2602948;54;20946;31
2023/10/15 13:32:51;;;;;;;10.77;5.25;;;12.70;99.90;;;;;;2710430;39;20632;31
2023/10/15 13:35:30;;;;;;;5.90;3.67;;;12.60;99.90;;;;;;2602994;54;19938;31
2023/10/15 13:38:09;;;;;;;12.00;5.97;;;12.50;99.90;;;;;;2603018;54;20037;31
2023/10/15 13:43:57;;;;;;;15.27;6.80;;;12.60;99.90;;;;;;2602870;54;20903;31
2023/10/15 13:46:33;;;;;;;10.40;2.13;;;12.70;99.90;;;;;;2621650;47;20140;31
2023/10/15 13:49:10;;;;;;;37.85;17.65;;;12.70;99.90;;;;;;2621178;47;20888;31
2023/10/15 13:54:59;;;;;;;17.70;7.80;;;12.70;99.90;;;;;;2603016;54;20062;31
2023/10/15 13:57:34;;;;;;;33.08;14.75;;;12.60;99.90;;;;;;2602779;54;19941;31
2023/10/15 14:00:15;;;;;;;8.35;3.33;;;12.50;99.90;;;;;;2602869;54;20027;31
2023/10/15 14:02:52;;;;;;;14.80;5.33;;;12.50;99.90;;;;;;2601983;54;20037;31
2023/10/15 14:05:36;;;;;;;7.28;1.95;;;12.40;99.90;;;;;;2620690;47;20569;31